Mc Arthur, Ohio
Current Conditions -  °F | °C
As of 4:35 PM on Friday 28 Nov 2014 (Local Time) from KUNI Reporting Station
Clear Clear  
Wind Chill: 29°   Ceiling: Unl
Heat Index: 33°   Visibility: 10mi
Dew Point: 14°   Wind: 5mph
Humidity: 46%   Direction: 190°S
Pressure: 30.25"   Gusts: NA
Location:  39.2719°N, 82.4596°W
Report Text: KUNI 282135Z AUTO 19004KT 10SM CLR 01/M10 A3025 RMK AO2 T00051099
Loading
Personal Weather Stations






























Interactive Weather Map New forecast layout! Learn more

10-Day Weather Forecast

Advertisements
Track Severe Weather on mobile